Tiempo atmosférico en la estación meteorológica de Villanueva Del Fresno, Badajoz (247 m.)



Fecha
DESCASC
Temp. máxima en grados centígrados (hora)
DESCASC
Temp. mínima en grados centígrados (hora)
DESCASC
Temp. media en grados centígrados
DESCASC
Racha de viento máxima en m/sg (hora)
DESCASC
Velocidad máxima media en intervalos de 10 minutos(hora)
DESCASC
Precipitaciones diarias en mm
DESCASC
Precipitaciones de 00:00 a 06:00 en mm
DESCASC
Precipitaciones de 06:00 a 12:00 en mm
DESCASC
Precipitaciones de 12:00 a 18:00 en mm
DESCASC
Precipitaciones de 18:00 a 24:00 en mm
DESCASC
24-05-2020 33.6 (17:20) 15.7 (07:20) 24.6 8.06 (19:50) 5 (18:20) 0 0 0 0 0
23-05-2020 33.4 (17:50) 14.4 (06:40) 23.9 10.28 (16:50) 4.72 (20:00) 0 0 0 0 0
22-05-2020 31.6 (16:20) 16 (07:10) 23.8 7.78 (17:20) 5.28 (20:00) 0 0 0 0 0
21-05-2020 31.5 (17:20) 15.3 (00:00) 23.4 7.22 (14:50) 4.72 (20:40) 0 0 0 0 0
20-05-2020 30.8 (17:10) 15.1 (00:00) 22.9 7.22 (23:00) 4.72 (23:00) 0 0 0 0 0
19-05-2020 30.2 (19:10) 13.2 (00:00) 21.7 5.56 (14:30) 3.33 (16:50) 0 0 0 0 0
18-05-2020 27.8 (19:00) 11.4 (00:00) 19.6 5.83 (18:00) 3.61 (18:40) 0 0 0 0 0
17-05-2020 25.9 (18:40) 11.6 (00:00) 18.8 8.06 (17:20) 5 (15:40) 0 0 0 0 0
16-05-2020 23.3 (17:00) 10.4 (00:00) 16.8 9.72 (14:30) 3.89 (15:40) 0 0 0 0 0
15-05-2020 21.1 (16:30) 11.1 (00:00) 16.1 10.56 (20:20) 5.83 (20:20) 0.8 0 0 0.2 0.6
14-05-2020 16.7 (15:50) 9.9 (00:00) 13.3 11.39 (13:30) 7.78 (13:30) 2 0 0 0.4 1.6
13-05-2020 18.8 (13:30) 10.8 (00:00) 14.8 12.22 (14:00) 7.22 (14:30) 4.6 0 0.2 3.2 1.2
12-05-2020 19.3 (18:20) 12.7 (00:00) 16 10.83 (18:50) 6.94 (18:50) 7.6 0 3.6 0 4
11-05-2020 19.8 (15:40) 13.5 (00:00) 16.6 14.17 (15:20) 8.61 (13:20) 2.6 0.8 1.6 0.2 0
10-05-2020 18.9 (15:10) 11.3 (00:00) 15.1 13.33 (16:40) 8.61 (16:50) 6.6 0 5.8 0.8 0
09-05-2020 19.9 (14:20) 12.8 (00:00) 16.3 11.67 (15:00) 6.67 (15:00) 6.6 0 0 6.6 0
08-05-2020 24.9 (17:00) 13.4 (00:00) 19.1 10.56 (16:30) 7.78 (16:20) 0 0 0 0 0
07-05-2020 27.9 (17:20) 13.2 (00:00) 20.5 7.5 (13:30) 5 (13:30) 0 0 0 0 0
06-05-2020 24.4 (17:30) 11.2 (00:00) 17.8 6.67 (13:30) 4.44 (23:59) 0 0 0 0 0
05-05-2020 23.4 (19:00) 11.4 (00:00) 17.4 8.06 (17:40) 3.89 (22:30) 0 0 0 0 0
04-05-2020 24.3 (16:20) 16.4 (00:00) 20.3 13.33 (17:30) 8.61 (11:50) 0 0 0 0 0
03-05-2020 31.4 (18:20) 15.9 (00:00) 23.6 -- (--) 5.56 (16:00) 0 0 0 0 0
02-05-2020 -- (--) -- (--) -- -- (--) -- (--) -- 0 -- 0 0
01-05-2020 22.4 (18:50) 11 (00:00) 16.7 8.61 (17:30) 3.89 (14:50) 0 0 0 0 0
30-04-2020 19.8 (16:20) 12.2 (00:00) 16 10.28 (03:40) 5.83 (03:30) 0.2 0.2 0 0 0
29-04-2020 19.8 (16:40) 8.3 (00:00) 14 10.83 (18:50) 7.5 (18:50) 0 0 0 0 0
28-04-2020 19.9 (18:30) 7.9 (00:00) 13.9 7.5 (19:10) 5 (19:10) 0 0 0 0 0

Gráficas

Temp. máximas Temp. mínimas Temp. medias Precipitaciones Rachas de viento máximas Velocidades máximas media en intervalos de 10 minutos

Datos horarios

Fecha y hora oficial Temperatura (ºC) Velocidad del viento (km/h) Dirección del viento Racha (km/h) Dirección de racha Precipitación (mm) Presión (hPa) Tendencia (hPa) Humedad (%)
2020-05-27 23:00:00 -- -- -- -- -- -- -- -- --
2020-05-27 22:00:00 -- -- -- -- -- -- -- -- --
2020-05-27 21:00:00 -- -- -- -- -- -- -- -- --
2020-05-27 20:00:00 -- -- -- -- -- -- -- -- --
2020-05-27 19:00:00 30.4 18 Nordeste 38 Nordeste 0 -- -- 37
2020-05-27 18:00:00 33.2 11 Este 33 Este 0 -- -- 29
2020-05-27 17:00:00 32.6 14 Sudeste 31 Este 0 -- -- 31
2020-05-27 16:00:00 32.3 14 Este 29 Sudeste 0 -- -- 32
2020-05-27 15:00:00 31.8 15 Sudeste 29 Este 0 -- -- 33
2020-05-27 14:00:00 31.1 9 Nordeste 33 Noroeste 0 -- -- 36
2020-05-27 13:00:00 29.5 10 Sudeste 19 Sudeste 0 -- -- 38
2020-05-27 12:00:00 28.5 12 Sudeste 22 Sudeste 0 -- -- 40
2020-05-27 11:00:00 26.9 9 Sudeste 22 Sudeste 0 -- -- 44
2020-05-27 10:00:00 24.1 8 Este 17 Este 0 -- -- 55
2020-05-27 09:00:00 22 5 Este 12 Nordeste 0 -- -- 62
2020-05-27 08:00:00 18.6 8 Nordeste 12 Nordeste 0 -- -- 72
2020-05-27 07:00:00 17.5 6 Este 9 Este 0 -- -- 76
2020-05-27 06:00:00 17.9 0 Calma 4 Sur 0 -- -- 75
2020-05-27 05:00:00 18.8 3 Sur 8 Sur 0 -- -- 70
2020-05-27 04:00:00 19.3 5 Sudeste 7 Sur 0 -- -- 68
2020-05-27 03:00:00 20.1 3 Sur 12 Sudoeste 0 -- -- 65
2020-05-27 02:00:00 21.2 10 Sudoeste 15 Sur 0 -- -- 61
2020-05-27 01:00:00 23 10 Sudoeste 15 Sudoeste 0 -- -- 55
2020-05-27 00:00:00 25.1 6 Sur 16 Este 0 -- -- 48
2020-05-26 23:00:00 27.2 13 Este 23 Sudeste 0 -- -- 44
2020-05-26 22:00:00 28.4 17 Nordeste 29 Nordeste 0 -- -- 40
2020-05-26 21:00:00 30.8 14 Nordeste 28 Nordeste 0 -- -- 39
2020-05-26 20:00:00 31.5 16 Nordeste 24 Nordeste 0 -- -- 38
2020-05-26 19:00:00 31.9 12 Nordeste 21 Este 0 -- -- 33
2020-05-26 18:00:00 33.1 9 Sudeste 24 Este 0 -- -- 31
2020-05-26 17:00:00 33 13 Este 25 Este 0 -- -- 32
2020-05-26 16:00:00 32.7 16 Este 31 Este 0 -- -- 30
2020-05-26 15:00:00 32.1 16 Este 27 Este 0 -- -- 32
2020-05-26 14:00:00 31.3 12 Este 28 Este 0 -- -- 43
2020-05-26 13:00:00 30 10 Este 22 Sudeste 0 -- -- 41
2020-05-26 12:00:00 28.6 10 Este 22 Este 0 -- -- 43
2020-05-26 11:00:00 26.9 5 Este 11 Este 0 -- -- 47
2020-05-26 10:00:00 24.6 4 Este 8 Sudeste 0 -- -- 57
2020-05-26 09:00:00 21.6 6 Sudeste 11 Sudeste 0 -- -- 66
2020-05-26 08:00:00 18.8 7 Este 11 Este 0 -- -- 74
2020-05-26 07:00:00 18.7 4 Sudeste 9 Sudoeste 0 -- -- 71
2020-05-26 06:00:00 19.2 5 Sudeste 11 Sur 0 -- -- 68
2020-05-26 05:00:00 19.4 6 Sur 11 Sur 0 -- -- 68
2020-05-26 04:00:00 19.7 6 Sur 12 Sur 0 -- -- 67
2020-05-26 03:00:00 20.4 4 Sur 15 Sudoeste 0 -- -- 64
2020-05-26 02:00:00 21.4 10 Sudoeste 17 Sudoeste 0 -- -- 61
2020-05-26 01:00:00 22.6 6 Sudoeste 19 Sudoeste 0 -- -- 59
2020-05-26 00:00:00 24.8 0 Calma 6 Nordeste 0 -- -- 56
2020-05-25 23:00:00 26.5 6 Nordeste 9 Norte 0 -- -- 51
2020-05-25 22:00:00 27.8 8 Norte 13 Norte 0 -- -- 47
2020-05-25 21:00:00 30.9 11 Norte 18 Noroeste 0 -- -- 39
2020-05-25 20:00:00 32.4 12 Noroeste 24 Oeste 0 -- -- 30
2020-05-25 19:00:00 32.5 17 Noroeste 27 Noroeste 0 -- -- 34
2020-05-25 18:00:00 32.3 13 Sudoeste 22 Sudoeste 0 -- -- 37
2020-05-25 17:00:00 32.1 14 Oeste 23 Oeste 0 -- -- 39
2020-05-25 16:00:00 31.5 8 Oeste 26 Oeste 0 -- -- 39
2020-05-25 15:00:00 30.7 12 Sudoeste 22 Sudoeste 0 -- -- 40
2020-05-25 14:00:00 29.8 7 Noroeste 21 Oeste 0 -- -- 42
2020-05-25 13:00:00 28.9 10 Oeste 18 Oeste 0 -- -- 49
2020-05-25 12:00:00 26.6 8 Oeste 14 Sudoeste 0 -- -- 57
2020-05-25 11:00:00 24.5 5 Sudoeste 13 Sudoeste 0 -- -- 62
2020-05-25 10:00:00 22.1 8 Sudoeste 13 Sudoeste 0 -- -- 67
2020-05-25 09:00:00 19.9 8 Sur 12 Sudoeste 0 -- -- 73
2020-05-25 08:00:00 18.2 5 Sur 9 Sur 0 -- -- 82
2020-05-25 07:00:00 18.1 4 Sudoeste 7 Sudoeste 0 -- -- 91
2020-05-25 06:00:00 18.8 4 Sudoeste 6 Sur 0 -- -- 88
2020-05-25 05:00:00 19.5 3 Sudoeste 5 Sur 0 -- -- 84
2020-05-25 04:00:00 20.3 2 Sur 7 Norte 0 -- -- 80
2020-05-25 03:00:00 21.4 4 Nordeste 6 Nordeste 0 -- -- 76
2020-05-25 02:00:00 22.5 5 Norte 10 Norte 0 -- -- 69
2020-05-25 01:00:00 23.3 3 Nordeste 4 Nordeste 0 -- -- 64
2020-05-25 00:00:00 24.6 2 Sur 10 Nordeste 0 -- -- 59
2020-05-24 23:00:00 26.1 9 Norte 13 Norte 0 -- -- 56
2020-05-24 22:00:00 27.7 9 Norte 18 Norte 0 -- -- 53
2020-05-24 21:00:00 30.7 13 Norte 25 Noroeste 0 -- -- 45
2020-05-24 20:00:00 32.2 17 Norte 29 Noroeste 0 -- -- 39
2020-05-24 19:00:00 33.5 15 Noroeste 28 Noroeste 0 -- -- 38
2020-05-24 18:00:00 33.5 13 Oeste 21 Oeste 0 -- -- 35
2020-05-24 17:00:00 33.4 14 Noroeste 28 Oeste 0 -- -- 36
2020-05-24 16:00:00 32.8 12 Oeste 26 Oeste 0 -- -- 37
2020-05-24 15:00:00 32.5 9 Sudoeste 23 Sudoeste 0 -- -- 39
2020-05-24 14:00:00 31.7 13 Oeste 22 Oeste 0 -- -- 42
2020-05-24 13:00:00 31 8 Sudeste 13 Sudeste 0 -- -- 44
2020-05-24 12:00:00 27.6 3 Oeste 9 Sudoeste 0 -- -- 53
2020-05-24 11:00:00 25.1 4 Sudoeste 8 Sudoeste 0 -- -- 58
2020-05-24 10:00:00 21.8 2 Oeste 7 Noroeste 0 -- -- 63
2020-05-24 09:00:00 19.2 4 Nordeste 10 Nordeste 0 -- -- 68
2020-05-24 08:00:00 16.1 0 Calma 6 Nordeste 0 -- -- 79
2020-05-24 07:00:00 15.9 4 Norte 8 Norte 0 -- -- 77
2020-05-24 06:00:00 16.7 5 Nordeste 19 Norte 0 -- -- 73
2020-05-24 05:00:00 17.3 9 Nordeste 16 Nordeste 0 -- -- 71
2020-05-24 04:00:00 18.4 9 Nordeste 14 Nordeste 0 -- -- 69
2020-05-24 03:00:00 18.6 6 Nordeste 13 Nordeste 0 -- -- 71
2020-05-24 02:00:00 19.3 6 Nordeste 10 Nordeste 0 -- -- 76
2020-05-24 01:00:00 21 6 Nordeste 12 Nordeste 0 -- -- 73
2020-05-24 00:00:00 22.7 6 Nordeste 17 Norte 0 -- -- 66
2020-05-23 23:00:00 24.6 13 Norte 19 Norte 0 -- -- 59
2020-05-23 22:00:00 26.8 13 Norte 22 Norte 0 -- -- 52
2020-05-23 21:00:00 29.6 13 Norte 25 Norte 0 -- -- 46
2020-05-23 20:00:00 31.5 17 Norte 24 Norte 0 -- -- 41
2020-05-23 19:00:00 32.6 15 Norte 26 Norte 0 -- -- 36
2020-05-23 18:00:00 33.2 12 Norte 22 Norte 0 -- -- 33
2020-05-23 17:00:00 33.2 12 Norte 37 Norte 0 -- -- 32
2020-05-23 16:00:00 32.8 11 Norte 22 Noroeste 0 -- -- 33
2020-05-23 15:00:00 31.7 11 Norte 23 Noroeste 0 -- -- 38
2020-05-23 14:00:00 30.7 10 Norte 22 Norte 0 -- -- 45
2020-05-23 13:00:00 29.2 8 Norte 15 Norte 0 -- -- 51
2020-05-23 12:00:00 26.1 6 Norte 15 Norte 0 -- -- 60
2020-05-23 11:00:00 23.5 6 Norte 12 Norte 0 -- -- 66
2020-05-23 10:00:00 20.1 9 Norte 14 Norte 0 -- -- 79
2020-05-23 09:00:00 17.5 4 Nordeste 12 Nordeste 0 -- -- 87
2020-05-23 08:00:00 15.4 7 Nordeste 21 Nordeste 0 -- -- 94
2020-05-23 07:00:00 14.6 11 Nordeste 16 Nordeste 0 -- -- 94
2020-05-23 06:00:00 15.1 0 Calma 10 Norte 0 -- -- 92
2020-05-23 05:00:00 15.5 3 Nordeste 6 Norte 0 -- -- 91
2020-05-23 04:00:00 16.5 3 Nordeste 8 Norte 0 -- -- 88
2020-05-23 03:00:00 17.4 6 Norte 9 Norte 0 -- -- 85
2020-05-23 02:00:00 18.8 6 Norte 11 Norte 0 -- -- 79
2020-05-23 01:00:00 20.4 10 Norte 25 Norte 0 -- -- 72
2020-05-23 00:00:00 22.3 12 Norte 18 Norte 0 -- -- 63
2020-05-22 23:00:00 23.9 6 Norte 12 Norte 0 -- -- 56
2020-05-22 22:00:00 25.5 7 Norte 15 Norte 0 -- -- 54
2020-05-22 21:00:00 28.5 11 Norte 25 Norte 0 -- -- 48
2020-05-22 20:00:00 30.1 19 Norte 25 Noroeste 0 -- -- 44
2020-05-22 19:00:00 31.1 14 Noroeste 23 Noroeste 0 -- -- 40
2020-05-22 18:00:00 31.4 14 Noroeste 28 Noroeste 0 -- -- 36
2020-05-22 17:00:00 31.6 9 Noroeste 23 Noroeste 0 -- -- 39
2020-05-22 16:00:00 31.2 5 Norte 18 Oeste 0 -- -- 41
2020-05-22 15:00:00 30.4 8 Norte 19 Noroeste 0 -- -- 43
2020-05-22 14:00:00 29.6 8 Norte 17 Norte 0 -- -- 47
2020-05-22 13:00:00 27.7 8 Noroeste 14 Norte 0 -- -- 49
2020-05-22 12:00:00 25.6 6 Noroeste 10 Norte 0 -- -- 57
2020-05-22 11:00:00 22.9 3 Sudoeste 6 Noroeste 0 -- -- 67
2020-05-22 10:00:00 19.9 3 Sudoeste 6 Sur 0 -- -- 79
2020-05-22 09:00:00 17.8 3 Sudoeste 5 Sudoeste 0 -- -- 85
2020-05-22 08:00:00 16.3 0 Calma 5 Este 0 -- -- 87
2020-05-22 07:00:00 16.1 6 Nordeste 12 Nordeste 0 -- -- 87
2020-05-22 06:00:00 16.6 8 Nordeste 12 Nordeste 0 -- -- 88
2020-05-22 05:00:00 17.5 11 Nordeste 15 Nordeste 0 -- -- 84
2020-05-22 04:00:00 17.5 0 Calma 7 Nordeste 0 -- -- 80
2020-05-22 03:00:00 18.5 3 Nordeste 19 Nordeste 0 -- -- 80
2020-05-22 02:00:00 19.3 9 Nordeste 15 Norte 0 -- -- 76
2020-05-22 01:00:00 20.5 8 Norte 13 Nordeste 0 -- -- 65
2020-05-22 00:00:00 21.7 9 Nordeste 21 Nordeste 0 -- -- 60
2020-05-21 23:00:00 22.7 13 Nordeste 22 Nordeste 0 -- -- 60
2020-05-21 22:00:00 24.6 12 Norte 22 Norte 0 -- -- 56
2020-05-21 21:00:00 27.9 17 Norte 25 Norte 0 -- -- 48
2020-05-21 20:00:00 30.5 12 Noroeste 22 Noroeste 0 -- -- 32
2020-05-21 19:00:00 31.3 11 Noroeste 26 Oeste 0 -- -- 31
2020-05-21 18:00:00 31.1 12 Oeste 24 Oeste 0 -- -- 33
2020-05-21 17:00:00 31.4 7 Sudoeste 25 Oeste 0 -- -- 30
2020-05-21 16:00:00 31.2 14 Sudoeste 21 Oeste 0 -- -- 29
2020-05-21 15:00:00 30.6 10 Oeste 26 Oeste 0 -- -- 30
2020-05-21 14:00:00 30.3 10 Oeste 22 Sudoeste 0 -- -- 26
2020-05-21 13:00:00 29.2 7 Sudoeste 15 Sur 0 -- -- 35
2020-05-21 12:00:00 27.9 4 Nordeste 13 Nordeste 0 -- -- 42
2020-05-21 11:00:00 25.6 4 Nordeste 10 Este 0 -- -- 47
2020-05-21 10:00:00 21.5 2 Este 4 Sur 0 -- -- 68
2020-05-21 09:00:00 17.3 0 Calma 3 Sudeste 0 -- -- 83
2020-05-21 08:00:00 15.8 0 Calma 5 Nordeste 0 -- -- 84
2020-05-21 07:00:00 15.9 2 Nordeste 5 Nordeste 0 -- -- 82
2020-05-21 06:00:00 16 2 Nordeste 5 Nordeste 0 -- -- 85
2020-05-21 05:00:00 16.1 3 Nordeste 8 Nordeste 0 -- -- 85
2020-05-21 04:00:00 17.2 5 Nordeste 13 Nordeste -- -- -- 80
2020-05-21 03:00:00 17.9 3 Nordeste 7 Nordeste 0 -- -- 78
2020-05-21 02:00:00 19.2 4 Este 20 Nordeste 0 -- -- 73
2020-05-21 01:00:00 20.4 13 Nordeste 19 Nordeste 0 -- -- 71
2020-05-21 00:00:00 21.6 13 Nordeste 23 Norte 0 -- -- 67
2020-05-20 23:00:00 23 17 Norte 26 Norte 0 -- -- 61
2020-05-20 22:00:00 24.7 7 Norte 16 Norte 0 -- -- 55
2020-05-20 21:00:00 27.8 10 Norte 25 Noroeste 0 -- -- 48
2020-05-20 20:00:00 29.6 12 Noroeste 20 Noroeste 0 -- -- 41
2020-05-20 19:00:00 30.6 6 Noroeste 21 Noroeste 0 -- -- 37
2020-05-20 18:00:00 30.8 9 Noroeste 25 Oeste 0 -- -- 37
2020-05-20 17:00:00 30.6 6 Noroeste 24 Noroeste 0 -- -- 34
2020-05-20 16:00:00 30.2 13 Noroeste 23 Oeste 0 -- -- 39
2020-05-20 15:00:00 30 12 Noroeste 24 Oeste 0 -- -- 41
2020-05-20 14:00:00 29 10 Noroeste 19 Noroeste 0 -- -- 42
2020-05-20 13:00:00 28.4 7 Nordeste 14 Norte 0 -- -- 49
2020-05-20 12:00:00 26.5 3 Oeste 9 Nordeste 0 -- -- 56
2020-05-20 11:00:00 23.3 4 Sur 8 Sur 0 -- -- 67
2020-05-20 10:00:00 19.9 5 Sudoeste 10 Sudoeste 0 -- -- 78
2020-05-20 09:00:00 18.5 2 Sudeste 5 Sudeste 0 -- -- 82
2020-05-20 08:00:00 15.4 3 Sudeste 9 Este 0 -- -- 89
2020-05-20 07:00:00 15.3 6 Sudeste 11 Sudeste 0 -- -- 89
2020-05-20 06:00:00 15.4 4 Sudeste 8 Sudeste 0 -- -- 87
2020-05-20 05:00:00 16 5 Sudeste 8 Sudeste 0 -- -- 89
2020-05-20 04:00:00 16.5 0 Calma 7 Sudoeste 0 -- -- 88
2020-05-20 03:00:00 17.6 3 Nordeste 13 Nordeste 0 -- -- 84
2020-05-20 02:00:00 19 11 Nordeste 23 Norte 0 -- -- 81
2020-05-20 01:00:00 20 10 Norte 14 Norte 0 -- -- 73
2020-05-20 00:00:00 22 3 Oeste 9 Oeste 0 -- -- 55
2020-05-19 23:00:00 24 6 Nordeste 9 Nordeste 0 -- -- 47
2020-05-19 22:00:00 25.1 6 Norte 9 Norte 0 -- -- 46
2020-05-19 21:00:00 27.9 8 Noroeste 15 Noroeste 0 -- -- 38
2020-05-19 20:00:00 29.4 11 Noroeste 16 Noroeste 0 -- -- 33
2020-05-19 19:00:00 30.1 6 Noroeste 19 Noroeste 0 -- -- 32
2020-05-19 18:00:00 29.8 7 Oeste 19 Oeste 0 -- -- 32
2020-05-19 17:00:00 29.6 9 Oeste 20 Oeste 0 -- -- 34
2020-05-19 16:00:00 29.1 6 Sur 18 Sudoeste 0 -- -- 35
2020-05-19 15:00:00 28.7 9 Oeste 20 Norte 0 -- -- 36
2020-05-19 14:00:00 27.9 9 Noroeste 19 Noroeste 0 -- -- 37
2020-05-19 13:00:00 26.8 8 Oeste 17 Oeste 0 -- -- 44
2020-05-19 12:00:00 24.8 8 Oeste 14 Oeste 0 -- -- 57
2020-05-19 11:00:00 22.4 2 Oeste 7 Oeste 0 -- -- 63
2020-05-19 10:00:00 19.5 2 Sudoeste 5 Sudoeste 0 -- -- 68
2020-05-19 09:00:00 16.6 0 Calma 3 Sudeste 0 -- -- 81
2020-05-19 08:00:00 13.8 2 Sudeste 5 Sudeste 0 -- -- 85
2020-05-19 07:00:00 14.2 4 Sudeste 9 Sudeste 0 -- -- 82
2020-05-19 06:00:00 14 3 Este 6 Sudeste 0 -- -- 84
2020-05-19 05:00:00 14.5 0 Calma 4 Sudeste 0 -- -- 86
2020-05-19 04:00:00 15.1 0 Calma 10 Este 0 -- -- 82
2020-05-19 03:00:00 16.5 0 Calma 7 Nordeste 0 -- -- 77
2020-05-19 02:00:00 17.6 7 Nordeste 11 Norte 0 -- -- 72
2020-05-19 01:00:00 19.4 8 Norte 12 Oeste 0 -- -- 64
2020-05-19 00:00:00 20.4 3 Norte 7 Norte 0 -- -- 58
2020-05-18 23:00:00 22.4 6 Noroeste 8 Noroeste 0 -- -- 52
2020-05-18 22:00:00 23.4 5 Noroeste 8 Norte 0 -- -- 50
2020-05-18 21:00:00 26 6 Norte 11 Norte 0 -- -- 40
2020-05-18 20:00:00 27 7 Nordeste 16 Noroeste 0 -- -- 37
2020-05-18 19:00:00 27.8 5 Norte 21 Norte 0 -- -- 35
2020-05-18 18:00:00 27.6 9 Noroeste 21 Noroeste 0 -- -- 37
2020-05-18 17:00:00 27.4 9 Oeste 19 Nordeste 0 -- -- 35
2020-05-18 16:00:00 26.9 8 Nordeste 20 Nordeste 0 -- -- 39
2020-05-18 15:00:00 25.9 9 Oeste 19 Noroeste 0 -- -- 39
2020-05-18 14:00:00 25.6 8 Noroeste 20 Norte 0 -- -- 46
2020-05-18 13:00:00 24.9 10 Nordeste 18 Nordeste 0 -- -- 44
2020-05-18 12:00:00 23.4 6 Noroeste 12 Sudoeste 0 -- -- 51
2020-05-18 11:00:00 21.7 5 Sudoeste 9 Oeste 0 -- -- 60
2020-05-18 10:00:00 19.1 3 Norte 7 Nordeste 0 -- -- 66
2020-05-18 09:00:00 14.9 2 Sudoeste 5 Este 0 -- -- 80
2020-05-18 08:00:00 12.1 2 Nordeste 6 Este 0 -- -- 85
2020-05-18 07:00:00 11.5 0 Calma 4 Sur 0 -- -- 84
2020-05-18 06:00:00 12.8 3 Nordeste 5 Norte 0 -- -- 80
2020-05-18 05:00:00 12.2 0 Calma 9 Nordeste 0 -- -- 82
2020-05-18 04:00:00 13.6 6 Norte 14 Norte 0 -- -- 77
2020-05-18 03:00:00 14.5 2 Sur 13 Este 0 -- -- 72
2020-05-18 02:00:00 16.8 10 Este 12 Este 0 -- -- 59
2020-05-18 01:00:00 17.3 11 Este 13 Este 0 -- -- 58
2020-05-18 00:00:00 17.1 9 Este 14 Este 0 -- -- 62
2020-05-17 23:00:00 18.6 11 Nordeste 16 Nordeste 0 -- -- 55
2020-05-17 22:00:00 20.1 11 Nordeste 14 Nordeste 0 -- -- 55
2020-05-17 21:00:00 22.8 11 Nordeste 23 Nordeste 0 -- -- 52
2020-05-17 20:00:00 24.4 12 Nordeste 24 Nordeste 0 -- -- 42
2020-05-17 19:00:00 25.1 12 Nordeste 25 Norte 0 -- -- 43
2020-05-17 18:00:00 25.2 12 Nordeste 29 Nordeste 0 -- -- 41
2020-05-17 17:00:00 25.7 16 Norte 26 Norte 0 -- -- 41
2020-05-17 16:00:00 25.1 16 Norte 26 Norte 0 -- -- 45
2020-05-17 15:00:00 24.7 11 Norte 24 Norte 0 -- -- 45
2020-05-17 14:00:00 24.1 11 Noroeste 24 Norte 0 -- -- 52
2020-05-17 13:00:00 23.4 8 Nordeste 16 Noroeste 0 -- -- 55
2020-05-17 12:00:00 22.3 6 Norte 14 Norte 0 -- -- 58
2020-05-17 11:00:00 21 9 Nordeste 14 Nordeste 0 -- -- 61
2020-05-17 10:00:00 18.4 4 Nordeste 15 Este 0 -- -- 73
2020-05-17 09:00:00 16 3 Este 6 Nordeste 0 -- -- 80
2020-05-17 08:00:00 12.4 0 Calma 4 Este 0 -- -- 94
2020-05-17 07:00:00 11.7 2 Norte 6 Noroeste 0 -- -- 93
2020-05-17 06:00:00 12 3 Sudeste 6 Este 0 -- -- 90
2020-05-17 05:00:00 12.6 2 Sur 9 Este 0 -- -- 88
2020-05-17 04:00:00 12.9 2 Sudeste 6 Sudeste 0 -- -- 88
2020-05-17 03:00:00 14.4 0 Calma 4 Sur 0 -- -- 83
2020-05-17 02:00:00 14.8 0 Calma 10 Sudeste 0 -- -- 81
2020-05-17 01:00:00 15.6 2 Nordeste 7 Este 0 -- -- 77
2020-05-17 00:00:00 16.9 4 Nordeste 11 Nordeste 0 -- -- 71
2020-05-16 23:00:00 17.8 8 Nordeste 15 Nordeste 0 -- -- 67
2020-05-16 22:00:00 19 7 Nordeste 12 Nordeste 0 -- -- 63
2020-05-16 21:00:00 21.5 9 Nordeste 23 Nordeste 0 -- -- 54
2020-05-16 20:00:00 22.3 9 Nordeste 26 Nordeste 0 -- -- 50
2020-05-16 19:00:00 22.3 8 Norte 19 Nordeste 0 -- -- 52
2020-05-16 18:00:00 22.9 9 Norte 22 Nordeste 0 -- -- 51
2020-05-16 17:00:00 23.3 8 Norte 20 Noroeste 0 -- -- 52
2020-05-16 16:00:00 20.7 10 Nordeste 22 Nordeste 0 -- -- 58
2020-05-16 15:00:00 21.4 7 Nordeste 35 Este 0 -- -- 56
2020-05-16 14:00:00 20.4 6 Nordeste 14 Norte 0 -- -- 61
2020-05-16 13:00:00 19.8 5 Este 10 Sudoeste 0 -- -- 61
2020-05-16 12:00:00 19 6 Este 12 Sur 0 -- -- 68
2020-05-16 11:00:00 15.9 6 Norte 11 Norte 0 -- -- 84
2020-05-16 10:00:00 13.9 3 Nordeste 14 Este 0 -- -- 89
2020-05-16 09:00:00 13.6 7 Este 12 Este 0 -- -- 89
2020-05-16 08:00:00 11.7 4 Nordeste 11 Este 0 -- -- 96
2020-05-16 07:00:00 10.5 2 Este 5 Nordeste 0 -- -- 95
2020-05-16 06:00:00 11.1 0 Calma 6 Sudeste 0 -- -- 94
2020-05-16 05:00:00 11.5 2 Este 8 Sudeste 0 -- -- 94
2020-05-16 04:00:00 11.2 3 Sudeste 9 Este 0 -- -- 94
2020-05-16 03:00:00 11.2 4 Sudeste 6 Sudeste 0 -- -- 94
2020-05-16 02:00:00 11.5 2 Sudeste 5 Este 0 -- -- 93
2020-05-16 01:00:00 12.4 0 Calma 4 Noroeste 0 -- -- 91
2020-05-16 00:00:00 13.5 3 Noroeste 4 Noroeste 0 -- -- 87
2020-05-15 23:00:00 14.5 0 Calma 10 Sur 0 -- -- 82
2020-05-15 22:00:00 15.1 4 Sur 16 Este 0 -- -- 81
2020-05-15 21:00:00 15.6 13 Este 38 Nordeste 0 -- -- 77
2020-05-15 20:00:00 17.6 21 Nordeste 34 Nordeste 0 -- -- 72
2020-05-15 19:00:00 17.9 3 Nordeste 12 Este 0.6 -- -- 73
2020-05-15 18:00:00 17.2 5 Este 26 Nordeste 0.2 -- -- 74
2020-05-15 17:00:00 20.5 11 Nordeste 19 Nordeste 0 -- -- 58
2020-05-15 16:00:00 20.4 9 Norte 23 Nordeste 0 -- -- 59
2020-05-15 15:00:00 19.9 11 Norte 23 Norte 0 -- -- 59
2020-05-15 14:00:00 19.3 4 Este 19 Este 0 -- -- 59
2020-05-15 13:00:00 19.1 10 Sudeste 21 Sudeste 0 -- -- 60
2020-05-15 12:00:00 18.1 12 Sudeste 25 Sudeste 0 -- -- 63
2020-05-15 11:00:00 16.1 11 Sudeste 27 Sudeste 0 -- -- 75
2020-05-15 10:00:00 14.8 18 Sudeste 27 Sudeste 0 -- -- 78
2020-05-15 09:00:00 12.7 9 Este 20 Sudeste 0 -- -- 89
2020-05-15 08:00:00 11.9 11 Sudeste 19 Sudeste 0 -- -- 90
2020-05-15 07:00:00 11.5 12 Sudeste 18 Este 0 -- -- 91
2020-05-15 06:00:00 11.1 11 Este 20 Sudeste 0 -- -- 91
2020-05-15 05:00:00 11.5 12 Sudeste 21 Este 0 -- -- 89
2020-05-15 04:00:00 11.4 8 Sudeste 21 Sudeste 0 -- -- 90
2020-05-15 03:00:00 11.5 7 Sudeste 21 Sudeste 0 -- -- 89
2020-05-15 02:00:00 11.6 11 Este 17 Este 0 -- -- 90
2020-05-15 01:00:00 11.9 10 Sudeste 16 Sudeste 0 -- -- 90
2020-05-15 00:00:00 12.4 7 Sudeste 14 Sudeste 0 -- -- 91
2020-05-14 23:00:00 12.1 7 Sudeste 15 Sur 0 -- -- 93
2020-05-14 22:00:00 12.3 8 Sudoeste 21 Sur 0.2 -- -- 92
2020-05-14 21:00:00 12.7 7 Sur 16 Sudoeste 0.6 -- -- 91
2020-05-14 20:00:00 12.6 11 Sur 39 Sudoeste 0.8 -- -- 88
2020-05-14 19:00:00 15.3 15 Sudoeste 28 Sur 0 -- -- 82
2020-05-14 18:00:00 15.5 13 Sur 26 Sur 0.2 -- -- 84
2020-05-14 17:00:00 15.1 12 Sur 37 Sur 0.2 -- -- 87
2020-05-14 16:00:00 16.3 21 Sur 37 Sur 0 -- -- 74
2020-05-14 15:00:00 15.9 17 Sur 35 Sudeste 0 -- -- 74
2020-05-14 14:00:00 16.2 22 Sur 41 Sur 0 -- -- 71
2020-05-14 13:00:00 15.9 20 Sur 32 Sur 0 -- -- 69
2020-05-14 12:00:00 14.9 13 Sudeste 32 Sudeste 0 -- -- 80
2020-05-14 11:00:00 14.2 18 Sudeste 35 Sudeste 0 -- -- 79
2020-05-14 10:00:00 13.6 16 Sudeste 30 Sudeste 0 -- -- 79
2020-05-14 09:00:00 12.1 12 Sudeste 19 Este 0 -- -- 87
2020-05-14 08:00:00 10.7 12 Sudeste 22 Sudeste 0 -- -- 91
2020-05-14 07:00:00 10.3 13 Sudeste 21 Sudeste 0 -- -- 93
2020-05-14 06:00:00 10 14 Sudeste 20 Sudeste 0 -- -- 94
2020-05-14 05:00:00 10.1 15 Sudeste 22 Sudeste 0 -- -- 94
2020-05-14 04:00:00 10.3 12 Sudeste 22 Sudeste 0 -- -- 94
2020-05-14 03:00:00 10.4 10 Sur 19 Sur 0 -- -- 94
2020-05-14 02:00:00 10.5 12 Sudeste 21 Sur 0 -- -- 95
2020-05-14 01:00:00 10.5 6 Sudeste 14 Sur 0 -- -- 95
2020-05-14 00:00:00 11.1 9 Sur 15 Sudoeste 0 -- -- 95
2020-05-13 23:00:00 11.6 7 Sudoeste 14 Sudoeste 0 -- -- 96
2020-05-13 22:00:00 11.6 10 Sudoeste 15 Sudoeste 0.2 -- -- 95
2020-05-13 21:00:00 11.6 13 Oeste 28 Oeste 0.2 -- -- 92
2020-05-13 20:00:00 12.2 5 Sudoeste 27 Sudoeste 0.8 -- -- 93
2020-05-13 19:00:00 13.3 18 Sudoeste 33 Oeste 0 -- -- 84
2020-05-13 18:00:00 13.9 23 Oeste 37 Sudoeste 0 -- -- 87
2020-05-13 17:00:00 15.5 10 Sudoeste 29 Oeste 3 -- -- 84
2020-05-13 16:00:00 17.1 16 Sur 31 Sudoeste 0 -- -- 77
2020-05-13 15:00:00 15.6 15 Sur 35 Sudoeste 0.2 -- -- 82
2020-05-13 14:00:00 17.3 24 Sudoeste 44 Sudoeste 0 -- -- 66
2020-05-13 13:00:00 18 18 Sur 33 Sudeste 0 -- -- 65
2020-05-13 12:00:00 16.5 22 Sudoeste 34 Sudoeste 0 -- -- 71
2020-05-13 11:00:00 15.4 22 Sudoeste 35 Sudoeste 0 -- -- 76
2020-05-13 10:00:00 14.1 16 Sur 24 Sur 0 -- -- 86
2020-05-13 09:00:00 12.7 12 Sur 19 Sur 0 -- -- 95
2020-05-13 08:00:00 11 6 Sudeste 10 Sudeste 0 -- -- 97
2020-05-13 07:00:00 10.9 6 Sur 11 Sur 0.2 -- -- 96
2020-05-13 06:00:00 11.4 6 Sur 10 Sudoeste 0 -- -- 96
2020-05-13 05:00:00 11.1 3 Sur 9 Sur 0 -- -- 96
2020-05-13 04:00:00 11 4 Sur 8 Sudoeste 0 -- -- 95
2020-05-13 03:00:00 11.3 5 Sudoeste 8 Sudoeste 0 -- -- 94
2020-05-13 02:00:00 11.9 4 Sudoeste 6 Oeste 0 -- -- 94
2020-05-13 01:00:00 12.6 4 Sudoeste 9 Sudoeste 0 -- -- 94
2020-05-13 00:00:00 13.4 4 Sudoeste 7 Sudoeste 0 -- -- 93
2020-05-12 23:00:00 13.7 5 Sudoeste 12 Oeste 2 -- -- 93
2020-05-12 22:00:00 13.9 4 Sur 20 Oeste 0.8 -- -- 91
2020-05-12 21:00:00 14.5 9 Oeste 20 Oeste 0.2 -- -- 84
2020-05-12 20:00:00 14.7 3 Norte 29 Oeste 1 -- -- 89
2020-05-12 19:00:00 16 24 Oeste 39 Sudoeste 0 -- -- 73
2020-05-12 18:00:00 19.2 11 Sudoeste 20 Sudoeste 0 -- -- 63
2020-05-12 17:00:00 17.5 10 Oeste 20 Oeste 0 -- -- 62
2020-05-12 16:00:00 17.2 10 Oeste 21 Oeste 0 -- -- 67
2020-05-12 15:00:00 16 4 Sudoeste 13 Oeste 0 -- -- 70
2020-05-12 14:00:00 15.9 9 Oeste 19 Oeste 0 -- -- 68
2020-05-12 13:00:00 15.4 12 Oeste 23 Sudoeste 0 -- -- 79
2020-05-12 12:00:00 15 15 Oeste 22 Oeste 0 -- -- 88
2020-05-12 11:00:00 14.7 12 Sudoeste 15 Sudoeste 0 -- -- 93
2020-05-12 10:00:00 13.9 5 Oeste 13 Oeste 1 -- -- 93
2020-05-12 09:00:00 13.7 4 Sudeste 10 Este 2.6 -- -- 92
2020-05-12 08:00:00 13.1 9 Este 14 Este 0 -- -- 94
2020-05-12 07:00:00 13 2 Sudeste 9 Sudeste 0 -- -- 93
2020-05-12 06:00:00 13 0 Calma 12 Este 0 -- -- 94
2020-05-12 05:00:00 12.9 4 Sudeste 13 Este 0 -- -- 93
2020-05-12 04:00:00 12.7 5 Este 7 Este 0 -- -- 92
2020-05-12 03:00:00 13.1 0 Calma 11 Este 0 -- -- 91
2020-05-12 02:00:00 13.2 9 Este 13 Este 0 -- -- 90
2020-05-12 01:00:00 14.3 3 Este 6 Sudeste 0 -- -- 84
2020-05-12 00:00:00 14.6 0 Calma 3 Sur 0 -- -- 84
2020-05-11 23:00:00 15.4 3 Norte 7 Noroeste 0 -- -- 80
2020-05-11 22:00:00 16.1 6 Noroeste 19 Oeste 0 -- -- 74
2020-05-11 21:00:00 17.5 15 Oeste 30 Oeste 0 -- -- 69
2020-05-11 20:00:00 18.5 18 Oeste 34 Oeste 0 -- -- 68
2020-05-11 19:00:00 18.9 20 Oeste 35 Noroeste 0 -- -- 68
2020-05-11 18:00:00 18.7 22 Oeste 45 Oeste 0 -- -- 71
2020-05-11 17:00:00 19.1 26 Oeste 48 Oeste 0 -- -- 63
2020-05-11 16:00:00 19.5 31 Oeste 51 Oeste 0 -- -- 66
2020-05-11 15:00:00 18.6 29 Sudoeste 49 Oeste 0 -- -- 73
2020-05-11 14:00:00 16.2 23 Sudoeste 45 Sudoeste 0.2 -- -- 85
2020-05-11 13:00:00 16.4 26 Sudoeste 40 Sudoeste 0 -- -- 88
2020-05-11 12:00:00 15.7 25 Sudoeste 36 Sudoeste 0 -- -- 88
2020-05-11 11:00:00 14.5 22 Sudoeste 33 Sudoeste 0.2 -- -- 92
2020-05-11 10:00:00 14 18 Sudoeste 27 Sudoeste 0.2 -- -- 92
2020-05-11 09:00:00 13.7 19 Sudoeste 32 Sudoeste 0 -- -- 93
2020-05-11 08:00:00 13.5 13 Sudoeste 22 Oeste 0 -- -- 95
2020-05-11 07:00:00 13.6 17 Sudoeste 37 Oeste 1.2 -- -- 95
2020-05-11 06:00:00 13.8 12 Sudoeste 30 Sudoeste 0.4 -- -- 95
2020-05-11 05:00:00 13.8 24 Sudoeste 37 Sudoeste 0.4 -- -- 93
2020-05-11 04:00:00 14.3 20 Sur 32 Sudoeste 0 -- -- 85
2020-05-11 03:00:00 14.5 17 Sudoeste 26 Sur 0 -- -- 83
2020-05-11 02:00:00 14.3 11 Sudoeste 22 Sudoeste 0 -- -- 85
2020-05-11 01:00:00 14.3 10 Sudoeste 15 Sudoeste 0 -- -- 85
2020-05-11 00:00:00 14.4 10 Sudoeste 21 Oeste 0 -- -- 83
2020-05-10 23:00:00 14.7 13 Sudoeste 28 Oeste 0 -- -- 79
2020-05-10 22:00:00 15.2 14 Sudoeste 24 Oeste 0 -- -- 78
2020-05-10 21:00:00 16 16 Oeste 33 Oeste 0 -- -- 72
2020-05-10 20:00:00 17.2 25 Oeste 37 Oeste 0 -- -- 65
2020-05-10 19:00:00 18.3 27 Oeste 40 Oeste 0 -- -- 61
2020-05-10 18:00:00 18.2 28 Oeste 45 Oeste 0 -- -- 67
2020-05-10 17:00:00 17.2 26 Oeste 48 Oeste 0 -- -- 74
2020-05-10 16:00:00 17.1 23 Oeste 41 Oeste 0.6 -- -- 74
2020-05-10 15:00:00 18.4 23 Oeste 46 Oeste 0.2 -- -- 68
2020-05-10 14:00:00 17.3 21 Oeste 31 Noroeste 0 -- -- 68
2020-05-10 13:00:00 16.1 15 Oeste 26 Noroeste 0 -- -- 73
2020-05-10 12:00:00 16.2 14 Oeste 26 Oeste 0 -- -- 76
2020-05-10 11:00:00 14.5 14 Oeste 21 Sudoeste 0 -- -- 87
2020-05-10 10:00:00 13.2 8 Sudoeste 15 Oeste 0 -- -- 94
2020-05-10 09:00:00 12 6 Sudoeste 30 Noroeste 2.4 -- -- 95
2020-05-10 08:00:00 12.1 17 Noroeste 33 Noroeste 3.4 -- -- 96
2020-05-10 07:00:00 12.1 11 Sudoeste 17 Sudoeste 0 -- -- 96
2020-05-10 06:00:00 11.8 5 Sur 11 Sudoeste 0 -- -- 95
2020-05-10 05:00:00 11.9 7 Sudoeste 12 Sudoeste 0 -- -- 95
2020-05-10 04:00:00 11.6 6 Sudoeste 12 Sudoeste 0 -- -- 95
2020-05-10 03:00:00 11.3 5 Sudoeste 10 Sudoeste 0 -- -- 94
2020-05-10 02:00:00 11.6 5 Sudoeste 8 Sudoeste 0 -- -- 93
2020-05-10 01:00:00 12 3 Oeste 9 Sudoeste 0 -- -- 90
2020-05-10 00:00:00 12.9 5 Sudoeste 15 Oeste 0 -- -- 88
2020-05-09 23:00:00 14 6 Oeste 17 Oeste 0 -- -- 82
2020-05-09 22:00:00 15 9 Oeste 26 Oeste 0 -- -- 75
2020-05-09 21:00:00 16.7 16 Oeste 34 Oeste 0 -- -- 69
2020-05-09 20:00:00 17.4 15 Oeste 28 Sudoeste 0 -- -- 73
2020-05-09 19:00:00 16.9 14 Sudoeste 21 Sudoeste 0 -- -- 86
2020-05-09 18:00:00 16.6 11 Oeste 21 Sudoeste 0 -- -- 87
2020-05-09 17:00:00 14.8 16 Oeste 32 Oeste 3.8 -- -- 95
2020-05-09 16:00:00 15.1 14 Oeste 26 Oeste 1.6 -- -- 92
2020-05-09 15:00:00 15.8 24 Oeste 42 Oeste 1.2 -- -- 80
2020-05-09 14:00:00 19.1 17 Sudoeste 31 Sudoeste 0 -- -- 60
2020-05-09 13:00:00 18.3 20 Sudoeste 27 Sudoeste 0 -- -- 63
2020-05-09 12:00:00 16.9 15 Sudoeste 23 Sudoeste 0 -- -- 68
2020-05-09 11:00:00 15.9 15 Sudoeste 25 Sudoeste 0 -- -- 73
2020-05-09 10:00:00 14.7 13 Sudoeste 16 Sudoeste 0 -- -- 82
2020-05-09 09:00:00 13.7 8 Sudoeste 12 Sudoeste 0 -- -- 91
2020-05-09 08:00:00 13.1 8 Sudoeste 12 Sudoeste 0 -- -- 94
2020-05-09 07:00:00 13 9 Sudoeste 13 Sudoeste 0 -- -- 93
2020-05-09 06:00:00 13 7 Sudoeste 12 Sudoeste 0 -- -- 92
2020-05-09 05:00:00 13.3 3 Sur 8 Sudoeste 0 -- -- 91
2020-05-09 04:00:00 13 4 Sudoeste 9 Sudoeste 0 -- -- 91
2020-05-09 03:00:00 13 6 Sudoeste 13 Sudoeste 0 -- -- 90
2020-05-09 02:00:00 14 9 Sudoeste 14 Sudoeste 0 -- -- 89
2020-05-09 01:00:00 15.4 6 Oeste 22 Oeste 0 -- -- 85
2020-05-09 00:00:00 16.6 13 Oeste 24 Noroeste 0 -- -- 84
2020-05-08 23:00:00 17.5 15 Noroeste 20 Oeste 0 -- -- 82
2020-05-08 22:00:00 18.7 13 Oeste 23 Noroeste 0 -- -- 78
2020-05-08 21:00:00 20.8 12 Noroeste 25 Oeste 0 -- -- 66
2020-05-08 20:00:00 -- -- -- -- -- -- -- -- --
2020-05-08 19:00:00 -- -- -- -- -- -- -- -- --
2020-05-08 18:00:00 -- -- -- -- -- -- -- -- --
2020-05-08 17:00:00 -- -- -- -- -- -- -- -- --
2020-05-08 16:00:00 -- -- -- -- -- -- -- -- --
2020-05-08 15:00:00 -- -- -- -- -- -- -- -- --
2020-05-08 14:00:00 -- -- -- -- -- -- -- -- --
2020-05-08 13:00:00 -- -- -- -- -- -- -- -- --
2020-05-08 12:00:00 -- -- -- -- -- -- -- -- --
2020-05-08 11:00:00 -- -- -- -- -- -- -- -- --
2020-05-08 10:00:00 -- -- -- -- -- -- -- -- --
2020-05-08 09:00:00 -- -- -- -- -- -- -- -- --
2020-05-08 08:00:00 -- -- -- -- -- -- -- -- --
2020-05-08 07:00:00 13.9 0 Calma 3 Este 0 -- -- 94
2020-05-08 06:00:00 14.8 0 Calma 6 Sur 0 -- -- 93
2020-05-08 05:00:00 15.2 5 Sur 6 Sur 0 -- -- 92
2020-05-08 04:00:00 15.5 3 Sur 14 Sur 0 -- -- 90
2020-05-08 03:00:00 16 6 Sur 9 Sur 0 -- -- 87
2020-05-08 02:00:00 16.9 4 Sur 15 Oeste 0 -- -- 83
2020-05-08 01:00:00 18 3 Noroeste 20 Sudoeste 0 -- -- 79
2020-05-08 00:00:00 19 10 Sudoeste 23 Sudoeste 0 -- -- 75
2020-05-07 23:00:00 20.7 15 Sudoeste 24 Oeste 0 -- -- 69
2020-05-07 22:00:00 22.1 13 Oeste 26 Sudoeste 0 -- -- 65
2020-05-07 21:00:00 25.1 13 Oeste 21 Sudoeste 0 -- -- 50
2020-05-07 20:00:00 27.2 9 Oeste 16 Noroeste 0 -- -- 45
2020-05-07 19:00:00 27.2 11 Noroeste 22 Oeste 0 -- -- 45
2020-05-07 18:00:00 27.8 10 Noroeste 23 Oeste 0 -- -- 44
2020-05-07 17:00:00 27.6 5 Noroeste 19 Oeste 0 -- -- 44
2020-05-07 16:00:00 26.8 9 Oeste 16 Oeste 0 -- -- 42
2020-05-07 15:00:00 25.6 6 Oeste 19 Sudoeste 0 -- -- 51
2020-05-07 14:00:00 23.3 9 Sudoeste 27 Nordeste 0 -- -- 56
2020-05-07 13:00:00 23.9 3 Noroeste 9 Norte 0 -- -- 51
2020-05-07 12:00:00 21.2 3 Oeste 8 Oeste 0 -- -- 62
2020-05-07 11:00:00 20.1 2 Este 13 Este 0 -- -- 61
2020-05-07 10:00:00 19 5 Este 11 Este 0 -- -- 65
2020-05-07 09:00:00 14.9 0 Calma 13 Este 0 -- -- 78
2020-05-07 08:00:00 13.9 4 Este 16 Este 0 -- -- 77
2020-05-07 07:00:00 13.8 0 Calma 16 Nordeste 0 -- -- 79
2020-05-07 06:00:00 14.5 12 Nordeste 16 Nordeste 0 -- -- 79
2020-05-07 05:00:00 14 11 Nordeste 14 Nordeste 0 -- -- 80
2020-05-07 04:00:00 14.9 11 Nordeste 14 Nordeste 0 -- -- 77
2020-05-07 03:00:00 15.7 3 Noroeste 8 Este 0 -- -- 72
2020-05-07 02:00:00 17 9 Este 18 Nordeste 0 -- -- 65
2020-05-07 01:00:00 17.8 14 Nordeste 21 Nordeste 0 -- -- 62
2020-05-07 00:00:00 18.2 16 Nordeste 22 Nordeste 0 -- -- 65
2020-05-06 23:00:00 18.4 12 Nordeste 19 Nordeste 0 -- -- 65
2020-05-06 22:00:00 19 12 Nordeste 18 Norte 0 -- -- 61
2020-05-06 21:00:00 20.9 12 Nordeste 21 Nordeste 0 -- -- 56
2020-05-06 20:00:00 23 14 Nordeste 20 Nordeste 0 -- -- 48
2020-05-06 19:00:00 23.3 12 Norte 22 Nordeste 0 -- -- 43
2020-05-06 18:00:00 24.4 12 Norte 24 Nordeste 0 -- -- 43
2020-05-06 17:00:00 24.3 14 Norte 23 Norte 0 -- -- 46
2020-05-06 16:00:00 23.8 14 Norte 22 Norte 0 -- -- 46
2020-05-06 15:00:00 22.7 12 Nordeste 24 Nordeste 0 -- -- 54
2020-05-06 14:00:00 21.8 10 Nordeste 24 Este 0 -- -- 56
2020-05-06 13:00:00 20.1 10 Nordeste 16 Norte 0 -- -- 62
2020-05-06 12:00:00 19.3 9 Norte 18 Nordeste 0 -- -- 69
2020-05-06 11:00:00 16.6 9 Nordeste 17 Nordeste 0 -- -- 79
2020-05-06 10:00:00 14.1 8 Nordeste 13 Nordeste 0 -- -- 94
2020-05-06 09:00:00 13.3 4 Nordeste 8 Este 0 -- -- 97
2020-05-06 08:00:00 12.2 7 Este 12 Este 0 -- -- 96
2020-05-06 07:00:00 11.8 3 Este 7 Norte 0 -- -- 94
2020-05-06 06:00:00 12.2 3 Norte 4 Norte 0 -- -- 94
2020-05-06 05:00:00 12.2 3 Este 4 Este 0 -- -- 93
2020-05-06 04:00:00 12.7 0 Calma 5 Noroeste 0 -- -- 91
2020-05-06 03:00:00 13.7 3 Noroeste 9 Noroeste 0 -- -- 89
2020-05-06 02:00:00 14.1 0 Calma 8 Noroeste 0 -- -- 86
2020-05-06 01:00:00 15.3 4 Noroeste 18 Norte 0 -- -- 82
2020-05-06 00:00:00 16 11 Norte 19 Norte 0 -- -- 79
2020-05-05 23:00:00 17 9 Noroeste 24 Noroeste 0 -- -- 73
2020-05-05 22:00:00 19.1 4 Norte 8 Norte 0 -- -- 54
2020-05-05 21:00:00 21.4 6 Norte 14 Norte 0 -- -- 47
2020-05-05 20:00:00 22.9 8 Noroeste 18 Norte 0 -- -- 46
2020-05-05 19:00:00 23.4 9 Norte 19 Oeste 0 -- -- 45
2020-05-05 18:00:00 23.2 8 Noroeste 29 Oeste 0 -- -- 44
2020-05-05 17:00:00 22.4 10 Oeste 23 Oeste 0 -- -- 43
2020-05-05 16:00:00 22 11 Norte 20 Noroeste 0 -- -- 49
2020-05-05 15:00:00 21.2 7 Noroeste 18 Noroeste 0 -- -- 54
2020-05-05 14:00:00 20.1 9 Noroeste 18 Noroeste 0 -- -- 57
2020-05-05 13:00:00 18.7 5 Oeste 14 Noroeste 0 -- -- 66
2020-05-05 12:00:00 18 4 Norte 12 Noroeste 0 -- -- 69
2020-05-05 11:00:00 15.9 3 Noroeste 8 Oeste 0 -- -- 80
2020-05-05 10:00:00 14.5 3 Sudeste 8 Sudeste 0 -- -- 90
2020-05-05 09:00:00 12.9 3 Sudeste 9 Sudeste 0 -- -- 95
2020-05-05 08:00:00 11.9 8 Sudeste 12 Sudeste 0 -- -- 95
2020-05-05 07:00:00 11.7 2 Este 5 Este 0 -- -- 94
2020-05-05 06:00:00 11.6 0 Calma 4 Este 0 -- -- 93
2020-05-05 05:00:00 11.8 0 Calma 4 Sudeste 0 -- -- 93
2020-05-05 04:00:00 12.3 3 Nordeste 7 Norte 0 -- -- 90
2020-05-05 03:00:00 13.4 4 Noroeste 5 Noroeste 0 -- -- 88
2020-05-05 02:00:00 14.3 3 Sur 12 Noroeste 0 -- -- 83
2020-05-05 01:00:00 15.6 6 Noroeste 15 Noroeste 0 -- -- 77
2020-05-05 00:00:00 16.4 10 Noroeste 19 Noroeste 0 -- -- 73
2020-05-04 23:00:00 17.3 9 Oeste 23 Oeste 0 -- -- 69
2020-05-04 22:00:00 18.6 13 Noroeste 23 Noroeste 0 -- -- 66
2020-05-04 21:00:00 20.5 17 Noroeste 30 Noroeste 0 -- -- 59
2020-05-04 20:00:00 22.3 19 Oeste 37 Oeste 0 -- -- 54
2020-05-04 19:00:00 22.9 27 Oeste 44 Oeste 0 -- -- 51
2020-05-04 18:00:00 23.9 30 Oeste 48 Oeste 0 -- -- 54
2020-05-04 17:00:00 24.2 26 Oeste 40 Oeste 0 -- -- 58
2020-05-04 16:00:00 24.1 23 Oeste 41 Oeste 0 -- -- 60
2020-05-04 15:00:00 23.4 18 Sudoeste 36 Oeste 0 -- -- 61
2020-05-04 14:00:00 23.3 25 Oeste 40 Oeste 0 -- -- 61
2020-05-04 13:00:00 22.4 24 Oeste 42 Sudoeste 0 -- -- 70
2020-05-04 12:00:00 22.7 30 Sudoeste 46 Sudoeste 0 -- -- 63
2020-05-04 11:00:00 21.2 19 Oeste 30 Oeste 0 -- -- 65
2020-05-04 10:00:00 21.4 13 Sudoeste 26 Sudoeste 0 -- -- 62
2020-05-04 09:00:00 19.2 8 Sudoeste 17 Oeste 0 -- -- 71
2020-05-04 08:00:00 18.7 5 Sudoeste 12 Oeste 0 -- -- 71
2020-05-04 07:00:00 19.3 5 Oeste 19 Noroeste 0 -- -- 71
2020-05-04 06:00:00 20.4 4 Oeste 20 Sudeste 0 -- -- 68
2020-05-04 05:00:00 21.8 13 Sudeste 22 Sudeste 0 -- -- 59
2020-05-04 04:00:00 19.6 7 Este 10 Sudeste 0 -- -- 69
2020-05-04 03:00:00 19.9 2 Sudeste 4 Este 0 -- -- 69
2020-05-04 02:00:00 20.2 0 Calma 14 Oeste 0 -- -- 70
2020-05-04 01:00:00 22.5 4 Sur 10 Sudeste 0 -- -- 56
2020-05-04 00:00:00 23.8 6 Sudeste 19 Este 0 -- -- 56
2020-05-03 23:00:00 24.7 13 Sudeste 18 Sudeste 0 -- -- 53
2020-05-03 22:00:00 26.1 10 Sudeste 16 Sur 0 -- -- 50
2020-05-03 21:00:00 28.4 8 Sur 16 Sur 0 -- -- 42
2020-05-03 20:00:00 30.6 10 Sur 22 Sudoeste 0 -- -- 40
2020-05-03 19:00:00 31.3 10 Sudoeste 21 Sur 0 -- -- 39
2020-05-03 18:00:00 31.3 13 Sudoeste 26 Sudoeste 0 -- -- 38
2020-05-03 17:00:00 31.1 16 Sudoeste 27 Sudoeste 0 -- -- 36
2020-05-03 16:00:00 30.8 20 Sudoeste 28 Oeste 0 -- -- 36
2020-05-03 15:00:00 30.4 19 Sudoeste 31 Sudoeste 0 -- -- 37
2020-05-03 14:00:00 29.9 -- -- -- -- 0 -- -- 41
2020-05-03 13:00:00 28.9 13 Sur 25 Sudeste 0 -- -- 44
2020-05-03 12:00:00 27.7 14 Sudeste 24 Sudeste 0 -- -- 47
2020-05-03 11:00:00 26 13 Sudeste 22 Sudeste 0 -- -- 55
2020-05-03 10:00:00 23.1 13 Sudeste 18 Sudeste 0 -- -- 63
2020-05-03 09:00:00 19.8 11 Este 19 Este 0 -- -- 67
2020-05-03 08:00:00 -- -- -- -- -- -- -- -- --
2020-05-03 07:00:00 -- -- -- -- -- -- -- -- --
2020-05-03 06:00:00 -- -- -- -- -- -- -- -- --
2020-05-03 05:00:00 -- -- -- -- -- -- -- -- --
2020-05-03 04:00:00 -- -- -- -- -- -- -- -- --
2020-05-03 03:00:00 -- -- -- -- -- -- -- -- --
2020-05-03 02:00:00 -- -- -- -- -- -- -- -- --
2020-05-03 01:00:00 -- -- -- -- -- -- -- -- --
2020-05-03 00:00:00 -- -- -- -- -- -- -- -- --
2020-05-02 23:00:00 -- -- -- -- -- -- -- -- --
2020-05-02 22:00:00 -- -- -- -- -- -- -- -- --
2020-05-02 21:00:00 -- -- -- -- -- -- -- -- --
2020-05-02 20:00:00 -- -- -- -- -- -- -- -- --
2020-05-02 19:00:00 -- -- -- -- -- -- -- -- --
2020-05-02 18:00:00 -- -- -- -- -- -- -- -- --
2020-05-02 17:00:00 -- -- -- -- -- -- -- -- --
2020-05-02 16:00:00 -- -- -- -- -- -- -- -- --
2020-05-02 15:00:00 -- -- -- -- -- -- -- -- --
2020-05-02 14:00:00 -- -- -- -- -- -- -- -- --
2020-05-02 13:00:00 -- -- -- -- -- -- -- -- --
2020-05-02 12:00:00 -- -- -- -- -- -- -- -- --
2020-05-02 11:00:00 -- -- -- -- -- -- -- -- --
2020-05-02 10:00:00 -- -- -- -- -- -- -- -- --
2020-05-02 09:00:00 -- -- -- -- -- -- -- -- --
2020-05-02 08:00:00 -- -- -- -- -- -- -- -- --
2020-05-02 07:00:00 11.9 2 Este 4 Sudeste 0 -- -- 96
2020-05-02 06:00:00 12.6 2 Sudeste 3 Sudeste 0 -- -- 96
2020-05-02 05:00:00 13.1 0 Calma 3 Sudeste 0 -- -- 95
2020-05-02 04:00:00 13.3 0 Calma 2 Sudeste 0 -- -- 94
2020-05-02 03:00:00 14 0 Calma 5 Norte 0 -- -- 94
2020-05-02 02:00:00 14.6 0 Calma 7 Oeste 0 -- -- 91
2020-05-02 01:00:00 15.8 5 Oeste 13 Noroeste 0 -- -- 88
2020-05-02 00:00:00 17.6 10 Noroeste 15 Noroeste 0 -- -- 81
2020-05-01 23:00:00 18.4 4 Oeste 8 Oeste 0 -- -- 75
2020-05-01 22:00:00 19.5 4 Oeste 11 Noroeste 0 -- -- 72
2020-05-01 21:00:00 21.2 8 Noroeste 12 Oeste 0 -- -- 66
2020-05-01 20:00:00 22 11 Noroeste 20 Oeste 0 -- -- 65
2020-05-01 19:00:00 22.1 13 Oeste 22 Noroeste 0 -- -- 64
2020-05-01 18:00:00 22 13 Oeste 31 Oeste 0 -- -- 65
2020-05-01 17:00:00 21.5 13 Oeste 24 Oeste 0 -- -- 67
2020-05-01 16:00:00 20.8 12 Noroeste 23 Oeste 0 -- -- 71
2020-05-01 15:00:00 19.9 14 Noroeste 22 Noroeste 0 -- -- 72
2020-05-01 14:00:00 18.8 12 Oeste 21 Noroeste 0 -- -- 77
2020-05-01 13:00:00 18.3 13 Oeste 19 Oeste 0 -- -- 79
2020-05-01 12:00:00 16.7 7 Noroeste 14 Oeste 0 -- -- 83
2020-05-01 11:00:00 14.1 6 Sur 11 Sur 0 -- -- 97
2020-05-01 10:00:00 11.8 6 Sur 9 Sudeste 0 -- -- 97
2020-05-01 09:00:00 11.6 2 Sudoeste 5 Sur 0 -- -- 96
2020-05-01 08:00:00 11.1 0 Calma 4 Sur 0 -- -- 96
2020-05-01 07:00:00 11.2 3 Sur 5 Sudeste 0 -- -- 96
2020-05-01 06:00:00 11 3 Sudeste 5 Sudeste 0 -- -- 95
2020-05-01 05:00:00 11.3 0 Calma 4 Sur 0 -- -- 94
2020-05-01 04:00:00 11.7 3 Sur 5 Sur 0 -- -- 94
2020-05-01 03:00:00 12.4 5 Sudoeste 9 Oeste 0 -- -- 92
2020-05-01 02:00:00 13.2 7 Noroeste 16 Oeste 0 -- -- 90
2020-05-01 01:00:00 13.8 8 Noroeste 11 Noroeste 0 -- -- 86
2020-05-01 00:00:00 14.6 5 Noroeste 19 Noroeste 0 -- -- 80
2020-04-30 23:00:00 16 8 Noroeste 16 Noroeste 0 -- -- 76
2020-04-30 22:00:00 17.6 8 Noroeste 17 Noroeste 0 -- -- 71
2020-04-30 21:00:00 18.3 5 Oeste 15 Noroeste 0 -- -- 69
2020-04-30 20:00:00 18.8 12 Oeste 23 Oeste 0 -- -- 64
2020-04-30 19:00:00 19.4 10 Noroeste 22 Oeste 0 -- -- 64
2020-04-30 18:00:00 19.6 13 Oeste 22 Oeste 0 -- -- 60
2020-04-30 17:00:00 19 15 Oeste 26 Oeste 0 -- -- 62
2020-04-30 16:00:00 19.3 11 Noroeste 21 Oeste 0 -- -- 63
2020-04-30 15:00:00 18.5 11 Noroeste 23 Noroeste 0 -- -- 66
2020-04-30 14:00:00 17.2 15 Noroeste 31 Noroeste 0 -- -- 68
2020-04-30 13:00:00 17.2 13 Noroeste 22 Noroeste 0 -- -- 69
2020-04-30 12:00:00 16 12 Noroeste 19 Noroeste 0 -- -- 77
2020-04-30 11:00:00 14.8 8 Oeste 14 Oeste 0 -- -- 84
2020-04-30 10:00:00 13.5 9 Oeste 13 Oeste 0 -- -- 87
2020-04-30 09:00:00 12.2 8 Oeste 14 Oeste 0 -- -- 92
2020-04-30 08:00:00 12.6 12 Oeste 18 Oeste 0 -- -- 95
2020-04-30 07:00:00 12.8 5 Oeste 10 Oeste 0 -- -- 95
2020-04-30 06:00:00 12.9 6 Oeste 21 Noroeste 0 -- -- 96
2020-04-30 05:00:00 13.1 13 Oeste 27 Noroeste 0 -- -- 96
2020-04-30 04:00:00 14 12 Oeste 37 Oeste 0.2 -- -- 97
2020-04-30 03:00:00 14 19 Sudoeste 28 Oeste 0 -- -- 95
2020-04-30 02:00:00 14.1 14 Sudoeste 23 Sudoeste 0 -- -- 94
2020-04-30 01:00:00 14.5 18 Oeste 30 Oeste 0 -- -- 90
2020-04-30 00:00:00 15.3 13 Oeste 25 Sudoeste 0 -- -- 85
2020-04-29 23:00:00 15.8 14 Oeste 24 Oeste 0 -- -- 83
2020-04-29 22:00:00 16.1 10 Oeste 23 Oeste 0 -- -- 80
2020-04-29 21:00:00 16.7 16 Oeste 28 Oeste 0 -- -- 76
2020-04-29 20:00:00 17.3 14 Oeste 38 Oeste 0 -- -- 77
2020-04-29 19:00:00 17.2 23 Oeste 39 Oeste 0 -- -- 76
2020-04-29 18:00:00 18.5 23 Oeste 36 Oeste 0 -- -- 67
2020-04-29 17:00:00 19.4 26 Oeste 35 Oeste 0 -- -- 60
2020-04-29 16:00:00 19 22 Oeste 34 Oeste 0 -- -- 61
2020-04-29 15:00:00 18.8 19 Oeste 28 Oeste 0 -- -- 58
2020-04-29 14:00:00 18.1 17 Oeste 31 Oeste 0 -- -- 57
2020-04-29 13:00:00 17.1 16 Oeste 27 Oeste 0 -- -- 60
2020-04-29 12:00:00 15.9 13 Sudoeste 20 Oeste 0 -- -- 66
2020-04-29 11:00:00 14.4 8 Oeste 15 Sudoeste 0 -- -- 78
2020-04-29 10:00:00 12.5 3 Sudoeste 6 Sudoeste 0 -- -- 89
2020-04-29 09:00:00 10.5 3 Sudeste 8 Sudeste 0 -- -- 95
2020-04-29 08:00:00 8.4 2 Sudeste 7 Sur 0 -- -- 95
2020-04-29 07:00:00 8.5 6 Sudeste 9 Sudeste 0 -- -- 94
2020-04-29 06:00:00 8.8 4 Sudeste 6 Sudeste 0 -- -- 94
2020-04-29 05:00:00 9.5 0 Calma 2 Sudeste 0 -- -- 93
2020-04-29 04:00:00 9.8 0 Calma 4 Sudeste 0 -- -- 92
2020-04-29 03:00:00 9.9 2 Sudeste 4 Sudeste 0 -- -- 89
2020-04-29 02:00:00 11 0 Calma 3 Sur 0 -- -- 85
2020-04-29 01:00:00 12.1 2 Norte 11 Norte 0 -- -- 81
2020-04-29 00:00:00 13.2 8 Norte 13 Noroeste 0 -- -- 77
2020-04-28 23:00:00 14.2 8 Noroeste 12 Noroeste 0 -- -- 72
2020-04-28 22:00:00 14.8 5 Norte 9 Norte 0 -- -- 67
2020-04-28 21:00:00 16.5 8 Norte 20 Noroeste 0 -- -- 61
2020-04-28 20:00:00 18.7 13 Noroeste 27 Oeste 0 -- -- 51
2020-04-28 19:00:00 19.5 12 Noroeste 24 Oeste 0 -- -- 50
2020-04-28 18:00:00 19 8 Norte 21 Norte 0 -- -- 50
2020-04-28 17:00:00 18.4 7 Norte 24 Noroeste 0 -- -- 51
2020-04-28 16:00:00 18.3 9 Noroeste 18 Norte 0 -- -- 53
2020-04-28 15:00:00 18.1 14 Oeste 23 Noroeste 0 -- -- 58
2020-04-28 14:00:00 17.5 12 Oeste 23 Noroeste 0 -- -- 55
2020-04-28 13:00:00 16.5 5 Oeste 18 Norte 0 -- -- 59
2020-04-28 12:00:00 15.6 6 Norte 17 Norte 0 -- -- 68
2020-04-28 11:00:00 13.5 9 Norte 15 Norte 0 -- -- 81
2020-04-28 10:00:00 11.7 2 Sudoeste 4 Sudoeste 0 -- -- 95
2020-04-28 09:00:00 9.8 0 Calma 3 Sudeste 0 -- -- 97
2020-04-28 08:00:00 7.9 2 Sur 3 Sur 0 -- -- 96
2020-04-28 07:00:00 8.1 0 Calma 5 Este 0 -- -- 96
2020-04-28 06:00:00 8.6 0 Calma 2 Este 0 -- -- 95
2020-04-28 05:00:00 8.9 0 Calma 2 Sudeste 0 -- -- 95
2020-04-28 04:00:00 9.1 0 Calma 5 Norte 0 -- -- 93
2020-04-28 03:00:00 10.1 2 Norte 3 Norte 0 -- -- 91
2020-04-28 02:00:00 10.8 2 Sudoeste 9 Noroeste 0 -- -- 87
2020-04-28 01:00:00 11.8 4 Noroeste 12 Noroeste 0 -- -- 84
2020-04-28 00:00:00 12.6 6 Noroeste 14 Noroeste 0 -- -- 81